La Guardia Airport
KLGA : rendu visible

Aérodrome :











RETROUVEZ-NOUS SUR...

 
LOGIN :

S'inscrire | Disclaimer

   EN    FR    IT 

 









Légende :    VFR   VFR Marginal   IFR   IFR Intensif   IFR Très Intensif
Visi : 
Plafond : 
>= 8 km
>= 3000ft
5 à 8 km
1000 à 3000 ft
1500m à 5 km
500 à 1000 ft
800 à 1500m
200 à 500 ft
< 800m
< 200 ft
Symboles :   Orages  Brouillard  Fortes neiges  Fortes précipitations  Vent > 20 kt






- Altitude de l'aérodrome : 21 ft
- Code IATA : LGA


KLGA - La Guardia

DERNIER METAR :
  • 100651Z 23014KT 10SM OVC014 14/11 A2974 RMK AO2 SLP069 T01390111

METARs EXPIRÉS :
  • 100551Z 23010KT 10SM BKN014 OVC019 13/11 A2973 RMK AO2 PK WND 22028/0500 RAE36 SLP068 P0001 60041 T01330106 10133 20111 56009
  • 100546Z 23013G20KT 10SM BKN014 OVC019 13/11 A2973 RMK AO2 PK WND 22028/0500 RAE36 P0001
  • 100525Z 22011G19KT 10SM -RA SCT014 OVC019 13/11 A2972 RMK AO2 PK WND 22028/0500 P0001 T01330106
  • 100451Z 23016G30KT 10SM -RA BKN014 OVC019 13/11 A2974 RMK AO2 PK WND 23030/0446 RAB0358 SLP071 P0002 T01330106 401330050

TAF KLGA
Valide du 10 à 06h jusqu'au 11 à 12h UTC


100532Z 1006/1112 22014G25KT 5SM BR OVC005 WS020/21045KT
TEMPO 1006/1008 6SM BR SCT005 OVC014
FM101300 23011KT 5SM BR VCSH OVC008
FM101800 26011KT 5SM -RA BR OVC025
FM102200 29010G21KT 5SM -RA BR OVC025
FM110400 32012KT 5SM -RA BR OVC020
FM110600 33010KT 4SM -RASN BR SCT008 OVC010
FM110900 33008KT 2SM -SN BR OVC008



MET'MAP, la Météo Aéronautique d'un coup d'oeil ! - Copyright ORBIFLY Décembre 2007 - Disclaimer

ORBIFLY MET'MAP TEAM :

Programmation & Développement : Alexandra Zaïnal
Sur une idée originale de : Baudouin d'Aumeries
Assistance à la programmation : Marc-Olivier Méhu
Soutien technique & logistique : Manuel Goepfert

Contact : metmap@orbifly.com




SOURCES & CREDITS :

   NOAA       Earth
Advisory